Maitland, Canada
Current Conditions -  °F | °C
As of 8:35 AM on Tuesday 27 Jan 2015 (Local Time) from CYHZ Reporting Station
Light Snow Light Snow  
Wind Chill: -2°   Ceiling: 500
Heat Index: 16°   Visibility: 1mi
Dew Point: 12°   Wind: 23mph
Humidity: 86%   Direction: 30°NNE
Pressure: 29.73"   Gusts: 43mph
Location:  45.32°N, 63.52°W
Report Text: CYHZ 271235Z 03020G37KT 1SM R14/3500FT/N -SN DRSN OVC005 M09/M11 A2973 RMK NS8 PRESFR SLP077
Loading
Personal Weather Stations






























Interactive Weather Map New forecast layout! Learn more

10-Day Weather Forecast

Advertisements
Track Severe Weather on mobile